sensor_id;sensor_type;location;lat;lon;timestamp;P1;durP1;ratioP1;P2;durP2;ratioP2
35522;SDS011;61478;50.820;4.330;2022-12-18T00:02:16;27.95;;;21.40;;
35522;SDS011;61478;50.820;4.330;2022-12-18T00:04:42;29.95;;;21.27;;
35522;SDS011;61478;50.820;4.330;2022-12-18T00:07:08;26.40;;;19.70;;
35522;SDS011;61478;50.820;4.330;2022-12-18T00:09:33;26.08;;;20.75;;
35522;SDS011;61478;50.820;4.330;2022-12-18T00:11:59;24.65;;;19.33;;
35522;SDS011;61478;50.820;4.330;2022-12-18T00:14:25;28.15;;;21.48;;
35522;SDS011;61478;50.820;4.330;2022-12-18T00:16:50;27.17;;;19.33;;
35522;SDS011;61478;50.820;4.330;2022-12-18T00:19:16;27.85;;;20.40;;
35522;SDS011;61478;50.820;4.330;2022-12-18T00:21:42;29.42;;;19.45;;
35522;SDS011;61478;50.820;4.330;2022-12-18T00:24:09;28.02;;;20.30;;
35522;SDS011;61478;50.820;4.330;2022-12-18T00:26:35;26.80;;;20.58;;
35522;SDS011;61478;50.820;4.330;2022-12-18T00:29:12;28.98;;;21.02;;
35522;SDS011;61478;50.820;4.330;2022-12-18T00:31:39;28.48;;;20.65;;
35522;SDS011;61478;50.820;4.330;2022-12-18T00:34:05;29.25;;;19.88;;
35522;SDS011;61478;50.820;4.330;2022-12-18T00:36:32;31.50;;;20.70;;
35522;SDS011;61478;50.820;4.330;2022-12-18T00:39:00;29.92;;;21.35;;
35522;SDS011;61478;50.820;4.330;2022-12-18T00:41:26;28.13;;;21.10;;
35522;SDS011;61478;50.820;4.330;2022-12-18T00:44:12;29.08;;;20.48;;
35522;SDS011;61478;50.820;4.330;2022-12-18T00:46:39;30.38;;;21.20;;
35522;SDS011;61478;50.820;4.330;2022-12-18T00:49:07;26.45;;;19.65;;
35522;SDS011;61478;50.820;4.330;2022-12-18T00:51:33;28.23;;;20.08;;
35522;SDS011;61478;50.820;4.330;2022-12-18T00:53:59;30.05;;;21.25;;
35522;SDS011;61478;50.820;4.330;2022-12-18T00:56:25;29.15;;;20.83;;
35522;SDS011;61478;50.820;4.330;2022-12-18T00:58:51;27.67;;;20.63;;
35522;SDS011;61478;50.820;4.330;2022-12-18T01:01:17;26.00;;;19.05;;
35522;SDS011;61478;50.820;4.330;2022-12-18T01:03:42;27.17;;;19.70;;
35522;SDS011;61478;50.820;4.330;2022-12-18T01:06:11;35.35;;;21.38;;
35522;SDS011;61478;50.820;4.330;2022-12-18T01:08:38;25.85;;;19.52;;
35522;SDS011;61478;50.820;4.330;2022-12-18T01:11:11;27.40;;;19.95;;
35522;SDS011;61478;50.820;4.330;2022-12-18T01:13:38;26.67;;;19.45;;
35522;SDS011;61478;50.820;4.330;2022-12-18T01:16:05;29.60;;;19.67;;
35522;SDS011;61478;50.820;4.330;2022-12-18T01:18:31;22.85;;;17.77;;
35522;SDS011;61478;50.820;4.330;2022-12-18T01:20:57;27.95;;;20.00;;
35522;SDS011;61478;50.820;4.330;2022-12-18T01:23:22;26.17;;;18.92;;
35522;SDS011;61478;50.820;4.330;2022-12-18T01:25:48;31.15;;;20.40;;
35522;SDS011;61478;50.820;4.330;2022-12-18T01:28:14;26.40;;;19.08;;
35522;SDS011;61478;50.820;4.330;2022-12-18T01:30:39;25.20;;;18.30;;
35522;SDS011;61478;50.820;4.330;2022-12-18T01:33:05;26.23;;;17.95;;
35522;SDS011;61478;50.820;4.330;2022-12-18T01:35:31;23.83;;;16.67;;
35522;SDS011;61478;50.820;4.330;2022-12-18T01:37:57;23.10;;;16.60;;
35522;SDS011;61478;50.820;4.330;2022-12-18T01:40:23;21.27;;;16.35;;
35522;SDS011;61478;50.820;4.330;2022-12-18T01:42:50;21.77;;;16.08;;
35522;SDS011;61478;50.820;4.330;2022-12-18T01:45:25;19.92;;;14.77;;
35522;SDS011;61478;50.820;4.330;2022-12-18T01:47:57;20.92;;;14.77;;
35522;SDS011;61478;50.820;4.330;2022-12-18T01:55:36;19.80;;;14.25;;
35522;SDS011;61478;50.820;4.330;2022-12-18T01:58:12;19.17;;;13.85;;
35522;SDS011;61478;50.820;4.330;2022-12-18T02:00:38;21.95;;;14.98;;
35522;SDS011;61478;50.820;4.330;2022-12-18T02:03:04;20.67;;;13.48;;
35522;SDS011;61478;50.820;4.330;2022-12-18T02:05:35;19.80;;;14.70;;
35522;SDS011;61478;50.820;4.330;2022-12-18T02:08:22;17.45;;;12.43;;
35522;SDS011;61478;50.820;4.330;2022-12-18T02:13:38;18.23;;;12.93;;
35522;SDS011;61478;50.820;4.330;2022-12-18T02:27:22;16.13;;;12.48;;
35522;SDS011;61478;50.820;4.330;2022-12-18T02:29:51;17.08;;;11.68;;
35522;SDS011;61478;50.820;4.330;2022-12-18T02:32:29;16.52;;;11.48;;
35522;SDS011;61478;50.820;4.330;2022-12-18T02:34:59;14.95;;;11.20;;
35522;SDS011;61478;50.820;4.330;2022-12-18T02:37:28;14.57;;;10.98;;
35522;SDS011;61478;50.820;4.330;2022-12-18T02:39:56;14.52;;;10.88;;
35522;SDS011;61478;50.820;4.330;2022-12-18T02:42:23;15.90;;;11.73;;
35522;SDS011;61478;50.820;4.330;2022-12-18T02:44:50;16.30;;;11.88;;
35522;SDS011;61478;50.820;4.330;2022-12-18T02:47:18;13.20;;;9.90;;
35522;SDS011;61478;50.820;4.330;2022-12-18T02:55:54;15.93;;;12.10;;
35522;SDS011;61478;50.820;4.330;2022-12-18T02:58:55;19.80;;;12.07;;
35522;SDS011;61478;50.820;4.330;2022-12-18T03:01:42;17.58;;;12.85;;
35522;SDS011;61478;50.820;4.330;2022-12-18T03:04:38;16.70;;;12.18;;
35522;SDS011;61478;50.820;4.330;2022-12-18T03:07:15;16.27;;;12.13;;
35522;SDS011;61478;50.820;4.330;2022-12-18T03:09:51;18.48;;;12.95;;
35522;SDS011;61478;50.820;4.330;2022-12-18T03:12:20;17.00;;;12.27;;
35522;SDS011;61478;50.820;4.330;2022-12-18T03:15:03;16.80;;;12.07;;
35522;SDS011;61478;50.820;4.330;2022-12-18T03:17:35;17.30;;;11.43;;
35522;SDS011;61478;50.820;4.330;2022-12-18T03:20:07;19.02;;;12.90;;
35522;SDS011;61478;50.820;4.330;2022-12-18T03:22:37;15.52;;;11.48;;
35522;SDS011;61478;50.820;4.330;2022-12-18T03:25:06;17.52;;;12.10;;
35522;SDS011;61478;50.820;4.330;2022-12-18T03:27:35;18.73;;;13.07;;
35522;SDS011;61478;50.820;4.330;2022-12-18T03:30:04;18.65;;;12.68;;
35522;SDS011;61478;50.820;4.330;2022-12-18T03:32:35;15.52;;;12.60;;
35522;SDS011;61478;50.820;4.330;2022-12-18T03:35:26;19.48;;;12.93;;
35522;SDS011;61478;50.820;4.330;2022-12-18T03:37:56;17.48;;;11.80;;
35522;SDS011;61478;50.820;4.330;2022-12-18T03:40:23;17.88;;;13.07;;
35522;SDS011;61478;50.820;4.330;2022-12-18T03:43:02;17.60;;;13.50;;
35522;SDS011;61478;50.820;4.330;2022-12-18T03:45:45;17.23;;;12.98;;
35522;SDS011;61478;50.820;4.330;2022-12-18T03:48:31;18.60;;;12.07;;
35522;SDS011;61478;50.820;4.330;2022-12-18T03:51:08;17.50;;;12.82;;
35522;SDS011;61478;50.820;4.330;2022-12-18T03:53:43;18.05;;;12.18;;
35522;SDS011;61478;50.820;4.330;2022-12-18T03:56:10;18.67;;;13.20;;
35522;SDS011;61478;50.820;4.330;2022-12-18T03:58:38;18.52;;;12.52;;
35522;SDS011;61478;50.820;4.330;2022-12-18T04:01:08;19.20;;;12.30;;
35522;SDS011;61478;50.820;4.330;2022-12-18T04:03:37;18.15;;;13.48;;
35522;SDS011;61478;50.820;4.330;2022-12-18T04:06:04;16.77;;;11.65;;
35522;SDS011;61478;50.820;4.330;2022-12-18T04:08:31;14.63;;;10.75;;
35522;SDS011;61478;50.820;4.330;2022-12-18T04:10:58;17.20;;;11.75;;
35522;SDS011;61478;50.820;4.330;2022-12-18T04:13:27;17.58;;;11.70;;
35522;SDS011;61478;50.820;4.330;2022-12-18T04:15:55;14.93;;;11.23;;
35522;SDS011;61478;50.820;4.330;2022-12-18T04:18:20;18.77;;;12.00;;
35522;SDS011;61478;50.820;4.330;2022-12-18T04:20:46;16.73;;;10.25;;
35522;SDS011;61478;50.820;4.330;2022-12-18T04:23:12;15.63;;;11.60;;
35522;SDS011;61478;50.820;4.330;2022-12-18T04:25:38;18.17;;;11.02;;
35522;SDS011;61478;50.820;4.330;2022-12-18T04:28:04;14.73;;;10.90;;
35522;SDS011;61478;50.820;4.330;2022-12-18T04:30:30;16.95;;;11.15;;
35522;SDS011;61478;50.820;4.330;2022-12-18T04:32:55;14.75;;;10.50;;
35522;SDS011;61478;50.820;4.330;2022-12-18T04:35:21;14.57;;;10.63;;
35522;SDS011;61478;50.820;4.330;2022-12-18T04:37:47;13.70;;;10.32;;
35522;SDS011;61478;50.820;4.330;2022-12-18T04:40:13;15.88;;;11.07;;
35522;SDS011;61478;50.820;4.330;2022-12-18T04:42:39;13.82;;;10.50;;
35522;SDS011;61478;50.820;4.330;2022-12-18T04:45:05;14.90;;;10.85;;
35522;SDS011;61478;50.820;4.330;2022-12-18T04:47:32;14.95;;;10.57;;
35522;SDS011;61478;50.820;4.330;2022-12-18T04:49:57;14.63;;;10.88;;
35522;SDS011;61478;50.820;4.330;2022-12-18T04:52:23;15.07;;;10.90;;
35522;SDS011;61478;50.820;4.330;2022-12-18T04:54:49;15.88;;;10.80;;
35522;SDS011;61478;50.820;4.330;2022-12-18T04:57:14;15.60;;;11.43;;
35522;SDS011;61478;50.820;4.330;2022-12-18T04:59:40;15.65;;;11.18;;
35522;SDS011;61478;50.820;4.330;2022-12-18T05:02:06;15.80;;;10.70;;
35522;SDS011;61478;50.820;4.330;2022-12-18T05:04:31;15.05;;;10.68;;
35522;SDS011;61478;50.820;4.330;2022-12-18T05:06:57;14.82;;;10.60;;
35522;SDS011;61478;50.820;4.330;2022-12-18T05:09:23;14.93;;;10.15;;
35522;SDS011;61478;50.820;4.330;2022-12-18T05:11:49;16.50;;;11.27;;
35522;SDS011;61478;50.820;4.330;2022-12-18T05:14:14;17.20;;;11.55;;
35522;SDS011;61478;50.820;4.330;2022-12-18T05:16:40;18.23;;;11.15;;
35522;SDS011;61478;50.820;4.330;2022-12-18T05:19:06;18.40;;;11.25;;
35522;SDS011;61478;50.820;4.330;2022-12-18T05:21:31;17.63;;;11.63;;
35522;SDS011;61478;50.820;4.330;2022-12-18T05:23:57;19.48;;;11.82;;
35522;SDS011;61478;50.820;4.330;2022-12-18T05:26:23;17.90;;;11.43;;
35522;SDS011;61478;50.820;4.330;2022-12-18T05:28:48;15.88;;;10.93;;
35522;SDS011;61478;50.820;4.330;2022-12-18T05:31:14;16.08;;;10.85;;
35522;SDS011;61478;50.820;4.330;2022-12-18T05:33:40;16.42;;;11.50;;
35522;SDS011;61478;50.820;4.330;2022-12-18T05:36:06;15.32;;;11.20;;
35522;SDS011;61478;50.820;4.330;2022-12-18T05:38:34;15.60;;;10.65;;
35522;SDS011;61478;50.820;4.330;2022-12-18T05:41:01;17.00;;;11.05;;
35522;SDS011;61478;50.820;4.330;2022-12-18T05:43:28;17.50;;;11.57;;
35522;SDS011;61478;50.820;4.330;2022-12-18T05:45:54;16.58;;;10.73;;
35522;SDS011;61478;50.820;4.330;2022-12-18T05:48:21;16.08;;;10.90;;
35522;SDS011;61478;50.820;4.330;2022-12-18T05:50:47;15.43;;;10.52;;
35522;SDS011;61478;50.820;4.330;2022-12-18T05:53:14;15.70;;;10.85;;
35522;SDS011;61478;50.820;4.330;2022-12-18T05:55:42;15.35;;;10.77;;
35522;SDS011;61478;50.820;4.330;2022-12-18T05:58:09;16.25;;;10.32;;
35522;SDS011;61478;50.820;4.330;2022-12-18T06:00:37;17.33;;;10.93;;
35522;SDS011;61478;50.820;4.330;2022-12-18T06:03:05;15.00;;;10.48;;
35522;SDS011;61478;50.820;4.330;2022-12-18T06:05:36;15.40;;;10.27;;
35522;SDS011;61478;50.820;4.330;2022-12-18T06:08:03;14.07;;;9.68;;
35522;SDS011;61478;50.820;4.330;2022-12-18T06:10:29;15.13;;;9.05;;
35522;SDS011;61478;50.820;4.330;2022-12-18T06:12:55;15.23;;;9.20;;
35522;SDS011;61478;50.820;4.330;2022-12-18T06:15:20;13.60;;;9.25;;
35522;SDS011;61478;50.820;4.330;2022-12-18T06:17:46;13.57;;;9.43;;
35522;SDS011;61478;50.820;4.330;2022-12-18T06:20:12;15.25;;;10.23;;
35522;SDS011;61478;50.820;4.330;2022-12-18T06:22:37;14.05;;;10.02;;
35522;SDS011;61478;50.820;4.330;2022-12-18T06:25:03;14.00;;;9.23;;
35522;SDS011;61478;50.820;4.330;2022-12-18T06:27:31;14.50;;;9.43;;
35522;SDS011;61478;50.820;4.330;2022-12-18T06:29:59;16.58;;;10.68;;
35522;SDS011;61478;50.820;4.330;2022-12-18T06:32:25;17.13;;;10.52;;
35522;SDS011;61478;50.820;4.330;2022-12-18T06:34:51;12.52;;;9.65;;
35522;SDS011;61478;50.820;4.330;2022-12-18T06:37:18;14.35;;;9.60;;
35522;SDS011;61478;50.820;4.330;2022-12-18T06:39:44;15.68;;;9.98;;
35522;SDS011;61478;50.820;4.330;2022-12-18T06:42:10;13.23;;;9.68;;
35522;SDS011;61478;50.820;4.330;2022-12-18T06:44:35;11.88;;;9.23;;
35522;SDS011;61478;50.820;4.330;2022-12-18T06:47:01;14.82;;;10.05;;
35522;SDS011;61478;50.820;4.330;2022-12-18T06:49:27;12.68;;;9.48;;
35522;SDS011;61478;50.820;4.330;2022-12-18T06:51:52;14.30;;;10.35;;
35522;SDS011;61478;50.820;4.330;2022-12-18T06:54:18;14.57;;;9.82;;
35522;SDS011;61478;50.820;4.330;2022-12-18T06:56:47;11.30;;;9.18;;
35522;SDS011;61478;50.820;4.330;2022-12-18T06:59:13;12.65;;;9.50;;
35522;SDS011;61478;50.820;4.330;2022-12-18T07:01:39;13.82;;;9.68;;
35522;SDS011;61478;50.820;4.330;2022-12-18T07:04:05;14.57;;;9.85;;
35522;SDS011;61478;50.820;4.330;2022-12-18T07:06:31;15.45;;;10.32;;
35522;SDS011;61478;50.820;4.330;2022-12-18T07:08:57;13.40;;;10.10;;
35522;SDS011;61478;50.820;4.330;2022-12-18T07:11:23;12.95;;;9.50;;
35522;SDS011;61478;50.820;4.330;2022-12-18T07:13:49;14.23;;;10.27;;
35522;SDS011;61478;50.820;4.330;2022-12-18T07:16:16;12.13;;;9.95;;
35522;SDS011;61478;50.820;4.330;2022-12-18T07:18:43;13.52;;;9.32;;
35522;SDS011;61478;50.820;4.330;2022-12-18T07:21:13;14.65;;;9.57;;
35522;SDS011;61478;50.820;4.330;2022-12-18T07:23:42;12.05;;;9.32;;
35522;SDS011;61478;50.820;4.330;2022-12-18T07:26:11;14.15;;;10.55;;
35522;SDS011;61478;50.820;4.330;2022-12-18T07:28:38;14.55;;;10.60;;
35522;SDS011;61478;50.820;4.330;2022-12-18T07:31:13;12.73;;;9.68;;
35522;SDS011;61478;50.820;4.330;2022-12-18T07:33:41;14.10;;;10.25;;
35522;SDS011;61478;50.820;4.330;2022-12-18T07:36:07;13.93;;;9.88;;
35522;SDS011;61478;50.820;4.330;2022-12-18T07:38:35;13.70;;;10.30;;
35522;SDS011;61478;50.820;4.330;2022-12-18T07:41:04;13.73;;;10.07;;
35522;SDS011;61478;50.820;4.330;2022-12-18T07:43:32;15.00;;;10.00;;
35522;SDS011;61478;50.820;4.330;2022-12-18T07:45:58;15.52;;;10.93;;
35522;SDS011;61478;50.820;4.330;2022-12-18T07:48:24;14.98;;;10.52;;
35522;SDS011;61478;50.820;4.330;2022-12-18T07:50:50;12.93;;;10.55;;
35522;SDS011;61478;50.820;4.330;2022-12-18T07:53:16;13.27;;;10.05;;
35522;SDS011;61478;50.820;4.330;2022-12-18T07:55:42;14.65;;;10.25;;
35522;SDS011;61478;50.820;4.330;2022-12-18T07:58:07;15.20;;;11.02;;
35522;SDS011;61478;50.820;4.330;2022-12-18T08:00:34;14.52;;;10.55;;
35522;SDS011;61478;50.820;4.330;2022-12-18T08:02:59;12.30;;;9.52;;
35522;SDS011;61478;50.820;4.330;2022-12-18T08:05:26;13.35;;;10.60;;
35522;SDS011;61478;50.820;4.330;2022-12-18T08:07:52;14.48;;;10.65;;
35522;SDS011;61478;50.820;4.330;2022-12-18T08:10:18;14.13;;;10.75;;
35522;SDS011;61478;50.820;4.330;2022-12-18T08:12:44;19.30;;;10.23;;
35522;SDS011;61478;50.820;4.330;2022-12-18T08:15:10;14.18;;;10.40;;
35522;SDS011;61478;50.820;4.330;2022-12-18T08:17:36;15.57;;;10.55;;
35522;SDS011;61478;50.820;4.330;2022-12-18T08:20:02;13.13;;;9.98;;
35522;SDS011;61478;50.820;4.330;2022-12-18T08:22:28;14.15;;;10.73;;
35522;SDS011;61478;50.820;4.330;2022-12-18T08:24:53;14.95;;;10.32;;
35522;SDS011;61478;50.820;4.330;2022-12-18T08:27:19;13.00;;;9.70;;
35522;SDS011;61478;50.820;4.330;2022-12-18T08:29:44;14.65;;;11.05;;
35522;SDS011;61478;50.820;4.330;2022-12-18T08:32:10;16.45;;;10.55;;
35522;SDS011;61478;50.820;4.330;2022-12-18T08:34:36;16.20;;;11.15;;
35522;SDS011;61478;50.820;4.330;2022-12-18T08:37:02;14.35;;;10.63;;
35522;SDS011;61478;50.820;4.330;2022-12-18T08:39:27;16.55;;;10.88;;
35522;SDS011;61478;50.820;4.330;2022-12-18T08:41:53;13.70;;;10.38;;
35522;SDS011;61478;50.820;4.330;2022-12-18T08:44:37;14.27;;;10.15;;
35522;SDS011;61478;50.820;4.330;2022-12-18T08:47:03;13.25;;;10.43;;
35522;SDS011;61478;50.820;4.330;2022-12-18T08:49:30;14.00;;;10.73;;
35522;SDS011;61478;50.820;4.330;2022-12-18T08:51:56;16.55;;;10.93;;
35522;SDS011;61478;50.820;4.330;2022-12-18T08:54:22;17.02;;;11.43;;
35522;SDS011;61478;50.820;4.330;2022-12-18T08:56:49;14.30;;;11.00;;
35522;SDS011;61478;50.820;4.330;2022-12-18T08:59:16;17.35;;;11.90;;
35522;SDS011;61478;50.820;4.330;2022-12-18T09:01:42;28.35;;;11.65;;
35522;SDS011;61478;50.820;4.330;2022-12-18T09:04:11;23.40;;;10.88;;
35522;SDS011;61478;50.820;4.330;2022-12-18T09:06:39;16.67;;;10.55;;
35522;SDS011;61478;50.820;4.330;2022-12-18T09:09:05;14.75;;;10.60;;
35522;SDS011;61478;50.820;4.330;2022-12-18T09:11:31;12.60;;;10.10;;
35522;SDS011;61478;50.820;4.330;2022-12-18T09:13:59;16.65;;;10.65;;
35522;SDS011;61478;50.820;4.330;2022-12-18T09:16:25;18.20;;;11.73;;
35522;SDS011;61478;50.820;4.330;2022-12-18T09:18:53;15.02;;;11.60;;
35522;SDS011;61478;50.820;4.330;2022-12-18T09:21:25;13.70;;;10.68;;
35522;SDS011;61478;50.820;4.330;2022-12-18T09:23:52;15.38;;;11.73;;
35522;SDS011;61478;50.820;4.330;2022-12-18T09:26:20;16.38;;;12.13;;
35522;SDS011;61478;50.820;4.330;2022-12-18T09:28:46;16.02;;;12.38;;
35522;SDS011;61478;50.820;4.330;2022-12-18T09:31:13;16.58;;;12.18;;
35522;SDS011;61478;50.820;4.330;2022-12-18T09:33:40;18.30;;;13.00;;
35522;SDS011;61478;50.820;4.330;2022-12-18T09:36:07;16.58;;;12.80;;
35522;SDS011;61478;50.820;4.330;2022-12-18T09:38:35;16.33;;;12.75;;
35522;SDS011;61478;50.820;4.330;2022-12-18T09:43:52;18.80;;;12.68;;
35522;SDS011;61478;50.820;4.330;2022-12-18T09:49:30;15.35;;;12.00;;
35522;SDS011;61478;50.820;4.330;2022-12-18T09:54:36;18.30;;;12.30;;
35522;SDS011;61478;50.820;4.330;2022-12-18T09:57:05;18.70;;;14.25;;
35522;SDS011;61478;50.820;4.330;2022-12-18T09:59:32;18.65;;;13.50;;
35522;SDS011;61478;50.820;4.330;2022-12-18T10:02:23;16.65;;;12.10;;
35522;SDS011;61478;50.820;4.330;2022-12-18T10:04:55;16.92;;;13.00;;
35522;SDS011;61478;50.820;4.330;2022-12-18T10:07:33;18.70;;;13.95;;
35522;SDS011;61478;50.820;4.330;2022-12-18T10:13:16;19.00;;;15.32;;
35522;SDS011;61478;50.820;4.330;2022-12-18T10:21:12;19.42;;;13.60;;
35522;SDS011;61478;50.820;4.330;2022-12-18T10:24:02;19.30;;;13.32;;
35522;SDS011;61478;50.820;4.330;2022-12-18T10:26:55;18.98;;;13.00;;
35522;SDS011;61478;50.820;4.330;2022-12-18T10:29:34;18.08;;;13.38;;
35522;SDS011;61478;50.820;4.330;2022-12-18T10:32:00;16.90;;;13.50;;
35522;SDS011;61478;50.820;4.330;2022-12-18T10:34:26;18.15;;;13.60;;
35522;SDS011;61478;50.820;4.330;2022-12-18T10:36:51;18.25;;;14.35;;
35522;SDS011;61478;50.820;4.330;2022-12-18T10:39:22;17.23;;;13.30;;
35522;SDS011;61478;50.820;4.330;2022-12-18T10:41:50;18.55;;;13.10;;
35522;SDS011;61478;50.820;4.330;2022-12-18T10:44:17;17.27;;;13.13;;
35522;SDS011;61478;50.820;4.330;2022-12-18T10:46:46;17.88;;;13.45;;
35522;SDS011;61478;50.820;4.330;2022-12-18T10:49:23;20.90;;;14.70;;
35522;SDS011;61478;50.820;4.330;2022-12-18T10:54:53;19.88;;;14.48;;
35522;SDS011;61478;50.820;4.330;2022-12-18T10:59:57;20.75;;;15.32;;
35522;SDS011;61478;50.820;4.330;2022-12-18T11:02:34;19.60;;;15.55;;
35522;SDS011;61478;50.820;4.330;2022-12-18T11:05:01;20.90;;;14.90;;
35522;SDS011;61478;50.820;4.330;2022-12-18T11:10:16;23.38;;;18.50;;
35522;SDS011;61478;50.820;4.330;2022-12-18T11:12:44;21.30;;;16.48;;
35522;SDS011;61478;50.820;4.330;2022-12-18T11:15:23;18.45;;;14.23;;
35522;SDS011;61478;50.820;4.330;2022-12-18T11:17:52;18.88;;;14.75;;
35522;SDS011;61478;50.820;4.330;2022-12-18T11:23:00;20.98;;;15.52;;
35522;SDS011;61478;50.820;4.330;2022-12-18T11:25:29;18.98;;;15.30;;
35522;SDS011;61478;50.820;4.330;2022-12-18T11:27:56;26.15;;;15.77;;
35522;SDS011;61478;50.820;4.330;2022-12-18T11:30:29;20.27;;;15.23;;
35522;SDS011;61478;50.820;4.330;2022-12-18T11:35:38;30.10;;;21.48;;
35522;SDS011;61478;50.820;4.330;2022-12-18T11:38:17;18.23;;;14.93;;
35522;SDS011;61478;50.820;4.330;2022-12-18T11:40:45;21.35;;;16.33;;
35522;SDS011;61478;50.820;4.330;2022-12-18T11:45:52;20.98;;;15.13;;
35522;SDS011;61478;50.820;4.330;2022-12-18T11:48:22;20.35;;;16.27;;
35522;SDS011;61478;50.820;4.330;2022-12-18T11:50:53;20.70;;;15.02;;
35522;SDS011;61478;50.820;4.330;2022-12-18T11:53:22;21.63;;;15.52;;
35522;SDS011;61478;50.820;4.330;2022-12-18T11:55:53;20.05;;;15.45;;
35522;SDS011;61478;50.820;4.330;2022-12-18T12:07:02;20.25;;;15.75;;
35522;SDS011;61478;50.820;4.330;2022-12-18T12:12:30;27.65;;;17.38;;
35522;SDS011;61478;50.820;4.330;2022-12-18T12:15:38;23.33;;;16.00;;
35522;SDS011;61478;50.820;4.330;2022-12-18T12:21:06;25.25;;;16.10;;
35522;SDS011;61478;50.820;4.330;2022-12-18T12:24:02;24.65;;;16.85;;
35522;SDS011;61478;50.820;4.330;2022-12-18T12:26:38;24.42;;;16.65;;
35522;SDS011;61478;50.820;4.330;2022-12-18T12:29:34;19.92;;;15.68;;
35522;SDS011;61478;50.820;4.330;2022-12-18T12:40:19;25.38;;;16.70;;
35522;SDS011;61478;50.820;4.330;2022-12-18T12:42:48;23.38;;;15.52;;
35522;SDS011;61478;50.820;4.330;2022-12-18T12:45:45;22.65;;;16.35;;
35522;SDS011;61478;50.820;4.330;2022-12-18T12:48:41;24.17;;;16.85;;
35522;SDS011;61478;50.820;4.330;2022-12-18T12:51:16;29.00;;;18.05;;
35522;SDS011;61478;50.820;4.330;2022-12-18T12:53:49;25.35;;;16.13;;
35522;SDS011;61478;50.820;4.330;2022-12-18T12:56:16;24.65;;;17.67;;
35522;SDS011;61478;50.820;4.330;2022-12-18T12:58:49;25.42;;;17.83;;
35522;SDS011;61478;50.820;4.330;2022-12-18T13:01:36;25.70;;;18.30;;
35522;SDS011;61478;50.820;4.330;2022-12-18T13:04:21;30.98;;;18.52;;
35522;SDS011;61478;50.820;4.330;2022-12-18T13:09:29;28.63;;;18.98;;
35522;SDS011;61478;50.820;4.330;2022-12-18T13:12:04;27.45;;;19.88;;
35522;SDS011;61478;50.820;4.330;2022-12-18T13:14:55;27.42;;;19.50;;
35522;SDS011;61478;50.820;4.330;2022-12-18T13:17:39;31.88;;;20.23;;
35522;SDS011;61478;50.820;4.330;2022-12-18T13:20:06;27.85;;;20.42;;
35522;SDS011;61478;50.820;4.330;2022-12-18T13:22:37;29.65;;;21.58;;
35522;SDS011;61478;50.820;4.330;2022-12-18T13:25:26;29.13;;;20.23;;
35522;SDS011;61478;50.820;4.330;2022-12-18T13:27:59;32.08;;;22.40;;
35522;SDS011;61478;50.820;4.330;2022-12-18T13:40:57;33.90;;;24.48;;
35522;SDS011;61478;50.820;4.330;2022-12-18T13:48:31;31.52;;;23.80;;
35522;SDS011;61478;50.820;4.330;2022-12-18T13:51:00;33.42;;;24.23;;
35522;SDS011;61478;50.820;4.330;2022-12-18T13:56:17;32.35;;;23.73;;
35522;SDS011;61478;50.820;4.330;2022-12-18T13:58:43;32.22;;;23.83;;
35522;SDS011;61478;50.820;4.330;2022-12-18T14:01:21;32.63;;;24.35;;
35522;SDS011;61478;50.820;4.330;2022-12-18T14:03:48;35.92;;;25.80;;
35522;SDS011;61478;50.820;4.330;2022-12-18T14:06:15;38.55;;;23.88;;
35522;SDS011;61478;50.820;4.330;2022-12-18T14:08:42;34.67;;;25.25;;
35522;SDS011;61478;50.820;4.330;2022-12-18T14:11:17;34.15;;;25.65;;
35522;SDS011;61478;50.820;4.330;2022-12-18T14:13:46;40.92;;;25.90;;
35522;SDS011;61478;50.820;4.330;2022-12-18T14:16:13;38.65;;;24.95;;
35522;SDS011;61478;50.820;4.330;2022-12-18T14:18:50;39.63;;;27.17;;
35522;SDS011;61478;50.820;4.330;2022-12-18T14:21:22;35.30;;;24.83;;
35522;SDS011;61478;50.820;4.330;2022-12-18T14:24:06;43.88;;;26.35;;
35522;SDS011;61478;50.820;4.330;2022-12-18T14:26:42;37.70;;;26.10;;
35522;SDS011;61478;50.820;4.330;2022-12-18T14:29:19;35.45;;;25.85;;
35522;SDS011;61478;50.820;4.330;2022-12-18T14:32:11;36.20;;;25.67;;
35522;SDS011;61478;50.820;4.330;2022-12-18T14:37:15;35.08;;;26.00;;
35522;SDS011;61478;50.820;4.330;2022-12-18T14:39:54;41.72;;;28.75;;
35522;SDS011;61478;50.820;4.330;2022-12-18T14:42:22;37.10;;;26.50;;
35522;SDS011;61478;50.820;4.330;2022-12-18T14:45:13;35.97;;;26.48;;
35522;SDS011;61478;50.820;4.330;2022-12-18T14:47:57;33.70;;;26.05;;
35522;SDS011;61478;50.820;4.330;2022-12-18T14:50:23;39.85;;;26.73;;
35522;SDS011;61478;50.820;4.330;2022-12-18T14:52:49;37.20;;;26.80;;
35522;SDS011;61478;50.820;4.330;2022-12-18T14:55:19;39.78;;;26.65;;
35522;SDS011;61478;50.820;4.330;2022-12-18T14:57:49;37.95;;;26.70;;
35522;SDS011;61478;50.820;4.330;2022-12-18T15:00:18;34.38;;;25.67;;
35522;SDS011;61478;50.820;4.330;2022-12-18T15:02:46;35.72;;;26.00;;
35522;SDS011;61478;50.820;4.330;2022-12-18T15:05:19;40.78;;;26.85;;
35522;SDS011;61478;50.820;4.330;2022-12-18T15:10:23;44.67;;;29.83;;
35522;SDS011;61478;50.820;4.330;2022-12-18T15:17:58;38.60;;;26.23;;
35522;SDS011;61478;50.820;4.330;2022-12-18T15:20:51;38.50;;;28.55;;
35522;SDS011;61478;50.820;4.330;2022-12-18T15:23:23;39.83;;;28.75;;
35522;SDS011;61478;50.820;4.330;2022-12-18T15:25:55;45.05;;;27.50;;
35522;SDS011;61478;50.820;4.330;2022-12-18T15:28:26;42.17;;;28.67;;
35522;SDS011;61478;50.820;4.330;2022-12-18T15:31:03;43.35;;;29.48;;
35522;SDS011;61478;50.820;4.330;2022-12-18T15:33:32;39.47;;;27.17;;
35522;SDS011;61478;50.820;4.330;2022-12-18T15:36:00;39.33;;;28.85;;
35522;SDS011;61478;50.820;4.330;2022-12-18T15:38:28;42.28;;;28.63;;
35522;SDS011;61478;50.820;4.330;2022-12-18T15:40:54;41.53;;;29.48;;
35522;SDS011;61478;50.820;4.330;2022-12-18T15:43:23;38.33;;;28.20;;
35522;SDS011;61478;50.820;4.330;2022-12-18T15:46:00;38.72;;;27.58;;
35522;SDS011;61478;50.820;4.330;2022-12-18T15:48:27;38.25;;;27.02;;
35522;SDS011;61478;50.820;4.330;2022-12-18T15:50:53;38.70;;;28.00;;
35522;SDS011;61478;50.820;4.330;2022-12-18T15:53:22;42.70;;;29.92;;
35522;SDS011;61478;50.820;4.330;2022-12-18T15:55:48;45.15;;;29.05;;
35522;SDS011;61478;50.820;4.330;2022-12-18T15:58:32;47.65;;;30.60;;
35522;SDS011;61478;50.820;4.330;2022-12-18T16:00:58;37.90;;;26.77;;
35522;SDS011;61478;50.820;4.330;2022-12-18T16:03:25;43.78;;;28.17;;
35522;SDS011;61478;50.820;4.330;2022-12-18T16:05:51;42.72;;;27.23;;
35522;SDS011;61478;50.820;4.330;2022-12-18T16:08:19;43.08;;;29.27;;
35522;SDS011;61478;50.820;4.330;2022-12-18T16:10:44;42.70;;;27.77;;
35522;SDS011;61478;50.820;4.330;2022-12-18T16:13:14;40.28;;;28.52;;
35522;SDS011;61478;50.820;4.330;2022-12-18T16:15:43;41.92;;;28.48;;
35522;SDS011;61478;50.820;4.330;2022-12-18T16:18:09;40.25;;;28.27;;
35522;SDS011;61478;50.820;4.330;2022-12-18T16:20:35;41.58;;;28.27;;
35522;SDS011;61478;50.820;4.330;2022-12-18T16:23:01;44.42;;;29.85;;
35522;SDS011;61478;50.820;4.330;2022-12-18T16:25:27;38.30;;;28.17;;
35522;SDS011;61478;50.820;4.330;2022-12-18T16:27:53;39.30;;;28.00;;
35522;SDS011;61478;50.820;4.330;2022-12-18T16:30:25;41.03;;;27.50;;
35522;SDS011;61478;50.820;4.330;2022-12-18T16:33:01;39.05;;;26.90;;